sensor_id;sensor_type;location;lat;lon;timestamp;P1;durP1;ratioP1;P2;durP2;ratioP2
57643;SDS011;43474;46.510;6.686;2023-09-12T00:02:04;8.23;;;7.30;;
57643;SDS011;43474;46.510;6.686;2023-09-12T00:04:30;8.00;;;7.20;;
57643;SDS011;43474;46.510;6.686;2023-09-12T00:06:55;8.27;;;6.93;;
57643;SDS011;43474;46.510;6.686;2023-09-12T00:09:21;8.90;;;7.40;;
57643;SDS011;43474;46.510;6.686;2023-09-12T00:11:47;8.55;;;7.28;;
57643;SDS011;43474;46.510;6.686;2023-09-12T00:14:16;8.30;;;6.90;;
57643;SDS011;43474;46.510;6.686;2023-09-12T00:16:42;8.70;;;7.07;;
57643;SDS011;43474;46.510;6.686;2023-09-12T00:19:08;10.90;;;7.55;;
57643;SDS011;43474;46.510;6.686;2023-09-12T00:21:34;8.13;;;6.85;;
57643;SDS011;43474;46.510;6.686;2023-09-12T00:23:59;7.53;;;6.80;;
57643;SDS011;43474;46.510;6.686;2023-09-12T00:26:25;7.65;;;6.65;;
57643;SDS011;43474;46.510;6.686;2023-09-12T00:28:51;7.93;;;6.90;;
57643;SDS011;43474;46.510;6.686;2023-09-12T00:31:16;8.15;;;7.25;;
57643;SDS011;43474;46.510;6.686;2023-09-12T00:33:42;7.80;;;6.97;;
57643;SDS011;43474;46.510;6.686;2023-09-12T00:36:07;7.10;;;6.40;;
57643;SDS011;43474;46.510;6.686;2023-09-12T00:38:33;7.85;;;7.05;;
57643;SDS011;43474;46.510;6.686;2023-09-12T00:40:58;7.28;;;6.43;;
57643;SDS011;43474;46.510;6.686;2023-09-12T00:43:24;7.35;;;6.65;;
57643;SDS011;43474;46.510;6.686;2023-09-12T00:45:50;7.80;;;7.00;;
57643;SDS011;43474;46.510;6.686;2023-09-12T00:48:16;7.50;;;6.63;;
57643;SDS011;43474;46.510;6.686;2023-09-12T00:50:43;7.55;;;6.72;;
57643;SDS011;43474;46.510;6.686;2023-09-12T00:53:11;9.68;;;6.97;;
57643;SDS011;43474;46.510;6.686;2023-09-12T00:55:37;7.88;;;6.90;;
57643;SDS011;43474;46.510;6.686;2023-09-12T00:58:08;8.30;;;6.80;;
57643;SDS011;43474;46.510;6.686;2023-09-12T01:00:34;8.85;;;7.18;;
57643;SDS011;43474;46.510;6.686;2023-09-12T01:02:59;8.05;;;7.22;;
57643;SDS011;43474;46.510;6.686;2023-09-12T01:05:25;7.45;;;6.63;;
57643;SDS011;43474;46.510;6.686;2023-09-12T01:07:52;7.35;;;6.53;;
57643;SDS011;43474;46.510;6.686;2023-09-12T01:10:18;8.48;;;7.15;;
57643;SDS011;43474;46.510;6.686;2023-09-12T01:12:44;7.60;;;6.72;;
57643;SDS011;43474;46.510;6.686;2023-09-12T01:15:09;8.80;;;7.57;;
57643;SDS011;43474;46.510;6.686;2023-09-12T01:17:40;7.80;;;6.95;;
57643;SDS011;43474;46.510;6.686;2023-09-12T01:20:07;7.97;;;6.80;;
57643;SDS011;43474;46.510;6.686;2023-09-12T01:22:55;7.38;;;6.60;;
57643;SDS011;43474;46.510;6.686;2023-09-12T01:28:13;11.52;;;7.25;;
57643;SDS011;43474;46.510;6.686;2023-09-12T01:30:42;8.88;;;7.00;;
57643;SDS011;43474;46.510;6.686;2023-09-12T01:33:11;7.97;;;7.18;;
57643;SDS011;43474;46.510;6.686;2023-09-12T01:35:37;9.65;;;7.25;;
57643;SDS011;43474;46.510;6.686;2023-09-12T01:38:03;8.43;;;7.50;;
57643;SDS011;43474;46.510;6.686;2023-09-12T01:40:37;8.20;;;7.00;;
57643;SDS011;43474;46.510;6.686;2023-09-12T01:43:07;9.55;;;6.80;;
57643;SDS011;43474;46.510;6.686;2023-09-12T01:45:33;8.05;;;7.20;;
57643;SDS011;43474;46.510;6.686;2023-09-12T01:48:01;8.55;;;7.03;;
57643;SDS011;43474;46.510;6.686;2023-09-12T01:50:27;8.45;;;7.13;;
57643;SDS011;43474;46.510;6.686;2023-09-12T01:52:54;8.00;;;6.97;;
57643;SDS011;43474;46.510;6.686;2023-09-12T01:55:20;8.05;;;6.95;;
57643;SDS011;43474;46.510;6.686;2023-09-12T01:57:47;7.70;;;6.90;;
57643;SDS011;43474;46.510;6.686;2023-09-12T02:00:13;8.70;;;6.82;;
57643;SDS011;43474;46.510;6.686;2023-09-12T02:02:39;9.73;;;7.25;;
57643;SDS011;43474;46.510;6.686;2023-09-12T02:05:07;8.93;;;6.72;;
57643;SDS011;43474;46.510;6.686;2023-09-12T02:07:38;8.05;;;7.05;;
57643;SDS011;43474;46.510;6.686;2023-09-12T02:10:06;7.72;;;6.93;;
57643;SDS011;43474;46.510;6.686;2023-09-12T02:12:32;8.55;;;7.03;;
57643;SDS011;43474;46.510;6.686;2023-09-12T02:14:58;9.60;;;6.68;;
57643;SDS011;43474;46.510;6.686;2023-09-12T02:17:23;7.70;;;6.93;;
57643;SDS011;43474;46.510;6.686;2023-09-12T02:19:49;7.97;;;7.10;;
57643;SDS011;43474;46.510;6.686;2023-09-12T02:22:15;8.13;;;6.90;;
57643;SDS011;43474;46.510;6.686;2023-09-12T02:24:40;8.38;;;7.20;;
57643;SDS011;43474;46.510;6.686;2023-09-12T02:27:06;8.32;;;7.18;;
57643;SDS011;43474;46.510;6.686;2023-09-12T02:29:31;9.10;;;7.55;;
57643;SDS011;43474;46.510;6.686;2023-09-12T02:32:01;8.13;;;6.93;;
57643;SDS011;43474;46.510;6.686;2023-09-12T02:34:26;7.70;;;6.68;;
57643;SDS011;43474;46.510;6.686;2023-09-12T02:36:52;10.10;;;7.20;;
57643;SDS011;43474;46.510;6.686;2023-09-12T02:39:18;7.40;;;6.70;;
57643;SDS011;43474;46.510;6.686;2023-09-12T02:41:44;7.90;;;7.10;;
57643;SDS011;43474;46.510;6.686;2023-09-12T02:44:09;10.10;;;7.00;;
57643;SDS011;43474;46.510;6.686;2023-09-12T02:46:36;7.40;;;6.70;;
57643;SDS011;43474;46.510;6.686;2023-09-12T02:49:02;8.18;;;6.95;;
57643;SDS011;43474;46.510;6.686;2023-09-12T02:51:27;8.05;;;7.25;;
57643;SDS011;43474;46.510;6.686;2023-09-12T02:53:53;7.72;;;6.93;;
57643;SDS011;43474;46.510;6.686;2023-09-12T02:56:19;7.78;;;6.97;;
57643;SDS011;43474;46.510;6.686;2023-09-12T02:58:48;8.10;;;7.30;;
57643;SDS011;43474;46.510;6.686;2023-09-12T03:01:17;8.07;;;7.20;;
57643;SDS011;43474;46.510;6.686;2023-09-12T03:03:50;8.90;;;7.60;;
57643;SDS011;43474;46.510;6.686;2023-09-12T03:06:16;8.27;;;7.22;;
57643;SDS011;43474;46.510;6.686;2023-09-12T03:08:43;7.80;;;6.90;;
57643;SDS011;43474;46.510;6.686;2023-09-12T03:11:09;8.15;;;7.30;;
57643;SDS011;43474;46.510;6.686;2023-09-12T03:13:39;8.40;;;7.05;;
57643;SDS011;43474;46.510;6.686;2023-09-12T03:16:10;7.25;;;6.55;;
57643;SDS011;43474;46.510;6.686;2023-09-12T03:18:36;8.07;;;7.00;;
57643;SDS011;43474;46.510;6.686;2023-09-12T03:21:01;8.65;;;7.50;;
57643;SDS011;43474;46.510;6.686;2023-09-12T03:23:27;7.90;;;6.72;;
57643;SDS011;43474;46.510;6.686;2023-09-12T03:25:53;9.20;;;7.30;;
57643;SDS011;43474;46.510;6.686;2023-09-12T03:28:19;7.88;;;6.88;;
57643;SDS011;43474;46.510;6.686;2023-09-12T03:30:44;7.95;;;7.15;;
57643;SDS011;43474;46.510;6.686;2023-09-12T03:33:10;7.45;;;6.72;;
57643;SDS011;43474;46.510;6.686;2023-09-12T03:35:36;7.68;;;6.88;;
57643;SDS011;43474;46.510;6.686;2023-09-12T03:38:01;8.25;;;6.43;;
57643;SDS011;43474;46.510;6.686;2023-09-12T03:40:31;8.02;;;7.22;;
57643;SDS011;43474;46.510;6.686;2023-09-12T03:42:56;8.43;;;7.13;;
57643;SDS011;43474;46.510;6.686;2023-09-12T03:45:23;7.78;;;6.90;;
57643;SDS011;43474;46.510;6.686;2023-09-12T03:47:49;7.65;;;6.85;;
57643;SDS011;43474;46.510;6.686;2023-09-12T03:50:15;8.10;;;6.90;;
57643;SDS011;43474;46.510;6.686;2023-09-12T03:52:40;8.50;;;7.57;;
57643;SDS011;43474;46.510;6.686;2023-09-12T03:55:06;7.97;;;6.88;;
57643;SDS011;43474;46.510;6.686;2023-09-12T03:57:32;8.75;;;6.72;;
57643;SDS011;43474;46.510;6.686;2023-09-12T03:59:58;7.97;;;7.10;;
57643;SDS011;43474;46.510;6.686;2023-09-12T04:02:23;7.80;;;6.90;;
57643;SDS011;43474;46.510;6.686;2023-09-12T04:04:49;8.45;;;7.45;;
57643;SDS011;43474;46.510;6.686;2023-09-12T04:07:17;7.97;;;7.15;;
57643;SDS011;43474;46.510;6.686;2023-09-12T04:09:43;7.55;;;6.75;;
57643;SDS011;43474;46.510;6.686;2023-09-12T04:12:08;9.68;;;7.03;;
57643;SDS011;43474;46.510;6.686;2023-09-12T04:14:34;9.45;;;6.95;;
57643;SDS011;43474;46.510;6.686;2023-09-12T04:17:01;9.07;;;7.55;;
57643;SDS011;43474;46.510;6.686;2023-09-12T04:19:26;7.65;;;6.85;;
57643;SDS011;43474;46.510;6.686;2023-09-12T04:21:52;7.68;;;6.80;;
57643;SDS011;43474;46.510;6.686;2023-09-12T04:24:18;8.25;;;7.43;;
57643;SDS011;43474;46.510;6.686;2023-09-12T04:26:43;10.35;;;7.15;;
57643;SDS011;43474;46.510;6.686;2023-09-12T04:29:10;7.93;;;6.95;;
57643;SDS011;43474;46.510;6.686;2023-09-12T04:31:35;7.55;;;6.85;;
57643;SDS011;43474;46.510;6.686;2023-09-12T04:34:01;7.70;;;6.90;;
57643;SDS011;43474;46.510;6.686;2023-09-12T04:36:27;9.70;;;6.95;;
57643;SDS011;43474;46.510;6.686;2023-09-12T04:38:53;7.85;;;7.05;;
57643;SDS011;43474;46.510;6.686;2023-09-12T04:41:18;9.45;;;7.03;;
57643;SDS011;43474;46.510;6.686;2023-09-12T04:43:44;8.50;;;7.60;;
57643;SDS011;43474;46.510;6.686;2023-09-12T04:46:10;7.63;;;6.82;;
57643;SDS011;43474;46.510;6.686;2023-09-12T04:48:37;8.57;;;7.15;;
57643;SDS011;43474;46.510;6.686;2023-09-12T04:51:03;9.13;;;7.35;;
57643;SDS011;43474;46.510;6.686;2023-09-12T04:53:29;10.18;;;6.47;;
57643;SDS011;43474;46.510;6.686;2023-09-12T04:56:00;8.23;;;7.38;;
57643;SDS011;43474;46.510;6.686;2023-09-12T04:58:29;9.23;;;7.00;;
57643;SDS011;43474;46.510;6.686;2023-09-12T05:00:55;7.63;;;6.90;;
57643;SDS011;43474;46.510;6.686;2023-09-12T05:03:21;7.93;;;7.13;;
57643;SDS011;43474;46.510;6.686;2023-09-12T05:05:48;7.57;;;6.78;;
57643;SDS011;43474;46.510;6.686;2023-09-12T05:08:18;10.20;;;7.10;;
57643;SDS011;43474;46.510;6.686;2023-09-12T05:10:43;8.40;;;7.28;;
57643;SDS011;43474;46.510;6.686;2023-09-12T05:13:09;11.02;;;7.30;;
57643;SDS011;43474;46.510;6.686;2023-09-12T05:15:35;8.90;;;6.68;;
57643;SDS011;43474;46.510;6.686;2023-09-12T05:18:02;8.05;;;7.25;;
57643;SDS011;43474;46.510;6.686;2023-09-12T05:20:27;10.63;;;6.78;;
57643;SDS011;43474;46.510;6.686;2023-09-12T05:22:53;8.88;;;7.28;;
57643;SDS011;43474;46.510;6.686;2023-09-12T05:25:19;8.10;;;7.20;;
57643;SDS011;43474;46.510;6.686;2023-09-12T05:27:44;7.93;;;7.13;;
57643;SDS011;43474;46.510;6.686;2023-09-12T05:30:10;8.20;;;7.30;;
57643;SDS011;43474;46.510;6.686;2023-09-12T05:32:36;9.82;;;7.45;;
57643;SDS011;43474;46.510;6.686;2023-09-12T05:35:01;10.52;;;7.28;;
57643;SDS011;43474;46.510;6.686;2023-09-12T05:37:27;12.15;;;7.32;;
57643;SDS011;43474;46.510;6.686;2023-09-12T05:39:56;8.32;;;7.43;;
57643;SDS011;43474;46.510;6.686;2023-09-12T05:42:22;9.25;;;7.82;;
57643;SDS011;43474;46.510;6.686;2023-09-12T05:44:48;9.20;;;7.63;;
57643;SDS011;43474;46.510;6.686;2023-09-12T05:47:15;8.20;;;7.40;;
57643;SDS011;43474;46.510;6.686;2023-09-12T05:49:41;9.05;;;8.00;;
57643;SDS011;43474;46.510;6.686;2023-09-12T05:52:07;9.68;;;7.55;;
57643;SDS011;43474;46.510;6.686;2023-09-12T05:54:32;10.93;;;7.57;;
57643;SDS011;43474;46.510;6.686;2023-09-12T05:56:58;9.63;;;7.53;;
57643;SDS011;43474;46.510;6.686;2023-09-12T05:59:23;9.40;;;7.60;;
57643;SDS011;43474;46.510;6.686;2023-09-12T06:01:49;8.20;;;7.15;;
57643;SDS011;43474;46.510;6.686;2023-09-12T06:04:14;11.45;;;7.82;;
57643;SDS011;43474;46.510;6.686;2023-09-12T06:06:40;8.30;;;7.40;;
57643;SDS011;43474;46.510;6.686;2023-09-12T06:09:06;9.80;;;7.97;;
57643;SDS011;43474;46.510;6.686;2023-09-12T06:11:32;10.88;;;7.35;;
57643;SDS011;43474;46.510;6.686;2023-09-12T06:13:57;9.95;;;7.47;;
57643;SDS011;43474;46.510;6.686;2023-09-12T06:16:23;8.98;;;7.57;;
57643;SDS011;43474;46.510;6.686;2023-09-12T06:18:49;9.55;;;7.53;;
57643;SDS011;43474;46.510;6.686;2023-09-12T06:21:14;10.32;;;7.45;;
57643;SDS011;43474;46.510;6.686;2023-09-12T06:23:40;8.60;;;7.43;;
57643;SDS011;43474;46.510;6.686;2023-09-12T06:26:06;8.10;;;6.90;;
57643;SDS011;43474;46.510;6.686;2023-09-12T06:28:31;10.48;;;7.72;;
57643;SDS011;43474;46.510;6.686;2023-09-12T06:30:57;10.07;;;7.22;;
57643;SDS011;43474;46.510;6.686;2023-09-12T06:33:24;12.07;;;7.60;;
57643;SDS011;43474;46.510;6.686;2023-09-12T06:35:52;10.13;;;7.68;;
57643;SDS011;43474;46.510;6.686;2023-09-12T06:38:21;9.30;;;7.63;;
57643;SDS011;43474;46.510;6.686;2023-09-12T06:40:47;9.13;;;7.88;;
57643;SDS011;43474;46.510;6.686;2023-09-12T06:43:13;9.82;;;8.30;;
57643;SDS011;43474;46.510;6.686;2023-09-12T06:45:42;9.57;;;8.20;;
57643;SDS011;43474;46.510;6.686;2023-09-12T06:48:08;9.75;;;7.40;;
57643;SDS011;43474;46.510;6.686;2023-09-12T06:50:34;8.93;;;8.02;;
57643;SDS011;43474;46.510;6.686;2023-09-12T06:53:00;11.82;;;7.95;;
57643;SDS011;43474;46.510;6.686;2023-09-12T06:55:27;12.18;;;7.68;;
57643;SDS011;43474;46.510;6.686;2023-09-12T06:57:53;11.60;;;8.05;;
57643;SDS011;43474;46.510;6.686;2023-09-12T07:00:19;9.93;;;7.35;;
57643;SDS011;43474;46.510;6.686;2023-09-12T07:02:45;9.55;;;7.70;;
57643;SDS011;43474;46.510;6.686;2023-09-12T07:05:11;12.23;;;8.43;;
57643;SDS011;43474;46.510;6.686;2023-09-12T07:07:36;9.27;;;7.75;;
57643;SDS011;43474;46.510;6.686;2023-09-12T07:10:02;10.65;;;7.53;;
57643;SDS011;43474;46.510;6.686;2023-09-12T07:12:28;10.63;;;7.38;;
57643;SDS011;43474;46.510;6.686;2023-09-12T07:14:54;8.45;;;7.60;;
57643;SDS011;43474;46.510;6.686;2023-09-12T07:17:21;11.30;;;8.02;;
57643;SDS011;43474;46.510;6.686;2023-09-12T07:19:47;10.82;;;7.85;;
57643;SDS011;43474;46.510;6.686;2023-09-12T07:22:12;9.05;;;8.13;;
57643;SDS011;43474;46.510;6.686;2023-09-12T07:24:38;12.27;;;7.95;;
57643;SDS011;43474;46.510;6.686;2023-09-12T07:27:04;9.55;;;7.65;;
57643;SDS011;43474;46.510;6.686;2023-09-12T07:29:30;8.35;;;6.95;;
57643;SDS011;43474;46.510;6.686;2023-09-12T07:31:55;8.77;;;7.38;;
57643;SDS011;43474;46.510;6.686;2023-09-12T07:34:21;9.35;;;8.10;;
57643;SDS011;43474;46.510;6.686;2023-09-12T07:36:48;9.50;;;8.00;;
57643;SDS011;43474;46.510;6.686;2023-09-12T07:39:14;11.07;;;7.63;;
57643;SDS011;43474;46.510;6.686;2023-09-12T07:41:40;10.20;;;7.47;;
57643;SDS011;43474;46.510;6.686;2023-09-12T07:44:05;8.88;;;7.30;;
57643;SDS011;43474;46.510;6.686;2023-09-12T07:46:33;9.50;;;8.00;;
57643;SDS011;43474;46.510;6.686;2023-09-12T07:49:14;10.50;;;8.00;;
57643;SDS011;43474;46.510;6.686;2023-09-12T07:51:40;11.40;;;7.57;;
57643;SDS011;43474;46.510;6.686;2023-09-12T07:54:05;9.95;;;8.55;;
57643;SDS011;43474;46.510;6.686;2023-09-12T07:56:31;10.20;;;7.57;;
57643;SDS011;43474;46.510;6.686;2023-09-12T07:58:57;12.00;;;8.00;;
57643;SDS011;43474;46.510;6.686;2023-09-12T08:01:23;8.98;;;7.90;;
57643;SDS011;43474;46.510;6.686;2023-09-12T08:03:49;10.23;;;8.02;;
57643;SDS011;43474;46.510;6.686;2023-09-12T08:06:15;10.93;;;7.55;;
57643;SDS011;43474;46.510;6.686;2023-09-12T08:08:41;8.48;;;7.50;;
57643;SDS011;43474;46.510;6.686;2023-09-12T08:11:06;9.30;;;8.18;;
57643;SDS011;43474;46.510;6.686;2023-09-12T08:13:32;9.32;;;7.85;;
57643;SDS011;43474;46.510;6.686;2023-09-12T08:16:00;10.07;;;8.10;;
57643;SDS011;43474;46.510;6.686;2023-09-12T08:18:26;8.48;;;7.63;;
57643;SDS011;43474;46.510;6.686;2023-09-12T08:20:58;11.88;;;8.05;;
57643;SDS011;43474;46.510;6.686;2023-09-12T08:23:24;10.30;;;7.80;;
57643;SDS011;43474;46.510;6.686;2023-09-12T08:25:50;9.27;;;7.82;;
57643;SDS011;43474;46.510;6.686;2023-09-12T08:28:16;12.23;;;8.82;;
57643;SDS011;43474;46.510;6.686;2023-09-12T08:30:43;9.85;;;8.23;;
57643;SDS011;43474;46.510;6.686;2023-09-12T08:33:10;10.77;;;8.75;;
57643;SDS011;43474;46.510;6.686;2023-09-12T08:35:36;9.32;;;8.05;;
57643;SDS011;43474;46.510;6.686;2023-09-12T08:38:02;9.32;;;8.23;;
57643;SDS011;43474;46.510;6.686;2023-09-12T08:40:27;9.15;;;8.25;;
57643;SDS011;43474;46.510;6.686;2023-09-12T08:42:55;9.02;;;8.13;;
57643;SDS011;43474;46.510;6.686;2023-09-12T08:45:23;10.48;;;8.18;;
57643;SDS011;43474;46.510;6.686;2023-09-12T08:47:53;10.52;;;8.20;;
57643;SDS011;43474;46.510;6.686;2023-09-12T08:50:19;9.35;;;8.38;;
57643;SDS011;43474;46.510;6.686;2023-09-12T08:52:48;9.77;;;8.15;;
57643;SDS011;43474;46.510;6.686;2023-09-12T08:55:14;12.77;;;8.50;;
57643;SDS011;43474;46.510;6.686;2023-09-12T08:57:41;10.88;;;8.43;;
57643;SDS011;43474;46.510;6.686;2023-09-12T09:00:08;12.13;;;9.73;;
57643;SDS011;43474;46.510;6.686;2023-09-12T09:02:36;9.90;;;8.75;;
57643;SDS011;43474;46.510;6.686;2023-09-12T09:05:04;10.25;;;9.00;;
57643;SDS011;43474;46.510;6.686;2023-09-12T09:07:32;10.37;;;8.80;;
57643;SDS011;43474;46.510;6.686;2023-09-12T09:10:01;10.13;;;8.35;;
57643;SDS011;43474;46.510;6.686;2023-09-12T09:14:55;11.18;;;7.93;;
57643;SDS011;43474;46.510;6.686;2023-09-12T09:17:21;10.45;;;8.48;;
57643;SDS011;43474;46.510;6.686;2023-09-12T09:19:47;10.00;;;8.48;;
57643;SDS011;43474;46.510;6.686;2023-09-12T09:22:13;9.95;;;8.43;;
57643;SDS011;43474;46.510;6.686;2023-09-12T09:24:39;11.73;;;8.40;;
57643;SDS011;43474;46.510;6.686;2023-09-12T09:27:04;8.82;;;7.63;;
57643;SDS011;43474;46.510;6.686;2023-09-12T09:29:30;11.05;;;8.32;;
57643;SDS011;43474;46.510;6.686;2023-09-12T09:31:58;9.85;;;7.95;;
57643;SDS011;43474;46.510;6.686;2023-09-12T09:34:25;10.68;;;8.52;;
57643;SDS011;43474;46.510;6.686;2023-09-12T09:36:56;9.40;;;7.95;;
57643;SDS011;43474;46.510;6.686;2023-09-12T09:39:22;9.55;;;8.20;;
57643;SDS011;43474;46.510;6.686;2023-09-12T09:41:50;9.75;;;7.68;;
57643;SDS011;43474;46.510;6.686;2023-09-12T09:44:20;9.93;;;8.25;;
57643;SDS011;43474;46.510;6.686;2023-09-12T09:46:50;10.07;;;8.02;;
57643;SDS011;43474;46.510;6.686;2023-09-12T09:49:19;10.75;;;8.02;;
57643;SDS011;43474;46.510;6.686;2023-09-12T09:51:45;12.90;;;8.35;;
57643;SDS011;43474;46.510;6.686;2023-09-12T09:54:11;9.35;;;8.35;;
57643;SDS011;43474;46.510;6.686;2023-09-12T09:59:13;9.48;;;8.13;;
57643;SDS011;43474;46.510;6.686;2023-09-12T10:01:40;8.90;;;8.00;;
57643;SDS011;43474;46.510;6.686;2023-09-12T10:04:08;13.88;;;8.27;;
57643;SDS011;43474;46.510;6.686;2023-09-12T10:06:36;9.82;;;8.18;;
57643;SDS011;43474;46.510;6.686;2023-09-12T10:09:04;9.90;;;8.20;;
57643;SDS011;43474;46.510;6.686;2023-09-12T10:11:33;10.27;;;8.70;;
57643;SDS011;43474;46.510;6.686;2023-09-12T10:14:01;10.48;;;8.13;;
57643;SDS011;43474;46.510;6.686;2023-09-12T10:16:29;11.68;;;7.93;;
57643;SDS011;43474;46.510;6.686;2023-09-12T10:19:15;10.25;;;8.55;;
57643;SDS011;43474;46.510;6.686;2023-09-12T10:27:00;9.52;;;8.35;;
57643;SDS011;43474;46.510;6.686;2023-09-12T10:29:27;10.80;;;8.65;;
57643;SDS011;43474;46.510;6.686;2023-09-12T10:31:53;9.75;;;8.40;;
57643;SDS011;43474;46.510;6.686;2023-09-12T10:34:18;9.18;;;8.27;;
57643;SDS011;43474;46.510;6.686;2023-09-12T10:36:45;11.90;;;8.60;;
57643;SDS011;43474;46.510;6.686;2023-09-12T10:39:13;10.90;;;8.43;;
57643;SDS011;43474;46.510;6.686;2023-09-12T10:41:40;10.85;;;8.65;;
57643;SDS011;43474;46.510;6.686;2023-09-12T10:44:06;9.13;;;7.88;;
57643;SDS011;43474;46.510;6.686;2023-09-12T10:46:38;9.20;;;8.25;;
57643;SDS011;43474;46.510;6.686;2023-09-12T10:49:11;14.77;;;8.33;;
57643;SDS011;43474;46.510;6.686;2023-09-12T10:51:38;9.20;;;7.60;;
57643;SDS011;43474;46.510;6.686;2023-09-12T10:54:05;8.70;;;7.40;;
57643;SDS011;43474;46.510;6.686;2023-09-12T10:56:31;9.07;;;7.90;;
57643;SDS011;43474;46.510;6.686;2023-09-12T11:01:30;8.10;;;7.25;;
57643;SDS011;43474;46.510;6.686;2023-09-12T11:03:56;8.60;;;7.32;;
57643;SDS011;43474;46.510;6.686;2023-09-12T11:06:23;7.95;;;6.93;;
57643;SDS011;43474;46.510;6.686;2023-09-12T11:11:46;8.65;;;7.10;;
57643;SDS011;43474;46.510;6.686;2023-09-12T11:14:12;9.85;;;7.20;;
57643;SDS011;43474;46.510;6.686;2023-09-12T11:16:39;8.02;;;7.13;;
57643;SDS011;43474;46.510;6.686;2023-09-12T11:19:17;11.15;;;7.60;;
57643;SDS011;43474;46.510;6.686;2023-09-12T11:21:48;9.15;;;7.35;;
57643;SDS011;43474;46.510;6.686;2023-09-12T11:24:15;9.18;;;7.57;;
57643;SDS011;43474;46.510;6.686;2023-09-12T11:27:01;10.00;;;7.40;;
57643;SDS011;43474;46.510;6.686;2023-09-12T11:29:36;10.93;;;6.72;;
57643;SDS011;43474;46.510;6.686;2023-09-12T11:32:04;10.00;;;6.95;;
57643;SDS011;43474;46.510;6.686;2023-09-12T11:34:36;7.68;;;6.68;;
57643;SDS011;43474;46.510;6.686;2023-09-12T11:37:03;7.85;;;7.05;;
57643;SDS011;43474;46.510;6.686;2023-09-12T11:39:31;8.85;;;6.97;;
57643;SDS011;43474;46.510;6.686;2023-09-12T11:41:59;9.82;;;7.00;;
57643;SDS011;43474;46.510;6.686;2023-09-12T11:44:26;8.48;;;6.43;;
57643;SDS011;43474;46.510;6.686;2023-09-12T11:46:53;10.32;;;6.75;;
57643;SDS011;43474;46.510;6.686;2023-09-12T11:49:28;7.43;;;6.65;;
57643;SDS011;43474;46.510;6.686;2023-09-12T11:52:00;9.15;;;6.75;;
57643;SDS011;43474;46.510;6.686;2023-09-12T11:54:26;9.70;;;6.35;;
57643;SDS011;43474;46.510;6.686;2023-09-12T11:56:55;7.05;;;6.20;;
57643;SDS011;43474;46.510;6.686;2023-09-12T11:59:28;9.77;;;6.68;;
57643;SDS011;43474;46.510;6.686;2023-09-12T12:01:55;7.68;;;6.63;;
57643;SDS011;43474;46.510;6.686;2023-09-12T12:04:21;8.27;;;6.50;;
57643;SDS011;43474;46.510;6.686;2023-09-12T12:06:49;7.18;;;6.03;;
57643;SDS011;43474;46.510;6.686;2023-09-12T12:09:16;7.00;;;6.30;;
57643;SDS011;43474;46.510;6.686;2023-09-12T12:11:44;8.27;;;6.13;;
57643;SDS011;43474;46.510;6.686;2023-09-12T12:14:13;7.45;;;6.63;;
57643;SDS011;43474;46.510;6.686;2023-09-12T12:16:41;8.48;;;6.53;;
57643;SDS011;43474;46.510;6.686;2023-09-12T12:19:11;10.35;;;6.43;;
57643;SDS011;43474;46.510;6.686;2023-09-12T12:21:39;8.77;;;6.30;;
57643;SDS011;43474;46.510;6.686;2023-09-12T12:24:07;9.50;;;6.45;;
57643;SDS011;43474;46.510;6.686;2023-09-12T12:26:33;7.47;;;5.93;;
57643;SDS011;43474;46.510;6.686;2023-09-12T12:28:59;8.70;;;5.93;;
57643;SDS011;43474;46.510;6.686;2023-09-12T12:31:26;8.02;;;6.30;;
57643;SDS011;43474;46.510;6.686;2023-09-12T12:33:52;9.35;;;6.68;;
57643;SDS011;43474;46.510;6.686;2023-09-12T12:36:19;9.82;;;6.00;;
57643;SDS011;43474;46.510;6.686;2023-09-12T12:38:46;7.63;;;6.43;;
57643;SDS011;43474;46.510;6.686;2023-09-12T12:41:13;7.80;;;5.90;;
57643;SDS011;43474;46.510;6.686;2023-09-12T12:43:41;6.93;;;6.10;;
57643;SDS011;43474;46.510;6.686;2023-09-12T12:46:11;8.27;;;6.25;;
57643;SDS011;43474;46.510;6.686;2023-09-12T12:48:42;7.20;;;5.93;;
57643;SDS011;43474;46.510;6.686;2023-09-12T12:53:44;7.82;;;6.00;;
57643;SDS011;43474;46.510;6.686;2023-09-12T12:56:15;8.00;;;6.28;;
57643;SDS011;43474;46.510;6.686;2023-09-12T12:58:51;8.40;;;6.00;;
57643;SDS011;43474;46.510;6.686;2023-09-12T13:01:18;7.28;;;5.75;;
57643;SDS011;43474;46.510;6.686;2023-09-12T13:03:44;7.57;;;5.68;;
57643;SDS011;43474;46.510;6.686;2023-09-12T13:06:10;6.90;;;6.10;;
57643;SDS011;43474;46.510;6.686;2023-09-12T13:08:40;6.77;;;6.07;;
57643;SDS011;43474;46.510;6.686;2023-09-12T13:11:08;7.03;;;6.32;;
57643;SDS011;43474;46.510;6.686;2023-09-12T13:13:34;6.93;;;5.90;;
57643;SDS011;43474;46.510;6.686;2023-09-12T13:16:02;8.02;;;6.53;;
57643;SDS011;43474;46.510;6.686;2023-09-12T13:18:30;6.45;;;5.75;;
57643;SDS011;43474;46.510;6.686;2023-09-12T13:20:57;6.68;;;5.82;;
57643;SDS011;43474;46.510;6.686;2023-09-12T13:23:22;6.63;;;5.70;;
57643;SDS011;43474;46.510;6.686;2023-09-12T13:25:50;8.43;;;5.82;;
57643;SDS011;43474;46.510;6.686;2023-09-12T13:28:16;6.93;;;5.70;;
57643;SDS011;43474;46.510;6.686;2023-09-12T13:30:42;7.28;;;6.03;;
57643;SDS011;43474;46.510;6.686;2023-09-12T13:33:08;7.13;;;5.43;;
57643;SDS011;43474;46.510;6.686;2023-09-12T13:35:33;6.82;;;5.65;;
57643;SDS011;43474;46.510;6.686;2023-09-12T13:37:59;6.95;;;6.15;;
57643;SDS011;43474;46.510;6.686;2023-09-12T13:40:24;7.63;;;6.18;;
57643;SDS011;43474;46.510;6.686;2023-09-12T13:42:50;6.15;;;5.32;;
57643;SDS011;43474;46.510;6.686;2023-09-12T13:45:15;7.13;;;5.50;;
57643;SDS011;43474;46.510;6.686;2023-09-12T13:47:41;8.18;;;6.00;;
57643;SDS011;43474;46.510;6.686;2023-09-12T13:50:08;6.80;;;5.78;;
57643;SDS011;43474;46.510;6.686;2023-09-12T13:52:33;6.32;;;5.68;;
57643;SDS011;43474;46.510;6.686;2023-09-12T13:54:59;7.10;;;5.88;;
57643;SDS011;43474;46.510;6.686;2023-09-12T13:57:28;6.43;;;5.40;;
57643;SDS011;43474;46.510;6.686;2023-09-12T13:59:54;6.13;;;5.28;;
57643;SDS011;43474;46.510;6.686;2023-09-12T14:02:20;6.72;;;5.60;;
57643;SDS011;43474;46.510;6.686;2023-09-12T14:04:45;6.82;;;5.57;;
57643;SDS011;43474;46.510;6.686;2023-09-12T14:07:11;5.60;;;5.10;;
57643;SDS011;43474;46.510;6.686;2023-09-12T14:09:36;6.38;;;5.25;;
57643;SDS011;43474;46.510;6.686;2023-09-12T14:12:02;7.18;;;5.57;;
57643;SDS011;43474;46.510;6.686;2023-09-12T14:14:28;6.32;;;4.90;;
57643;SDS011;43474;46.510;6.686;2023-09-12T14:16:54;6.35;;;5.55;;
57643;SDS011;43474;46.510;6.686;2023-09-12T14:19:19;6.28;;;5.60;;
57643;SDS011;43474;46.510;6.686;2023-09-12T14:21:45;7.13;;;5.28;;
57643;SDS011;43474;46.510;6.686;2023-09-12T14:24:11;7.03;;;5.38;;
57643;SDS011;43474;46.510;6.686;2023-09-12T14:26:36;5.82;;;5.22;;
57643;SDS011;43474;46.510;6.686;2023-09-12T14:29:01;5.40;;;4.90;;
57643;SDS011;43474;46.510;6.686;2023-09-12T14:31:27;7.50;;;5.70;;
57643;SDS011;43474;46.510;6.686;2023-09-12T14:33:53;6.10;;;5.25;;
57643;SDS011;43474;46.510;6.686;2023-09-12T14:36:18;6.15;;;5.35;;
57643;SDS011;43474;46.510;6.686;2023-09-12T14:38:44;5.97;;;5.05;;
57643;SDS011;43474;46.510;6.686;2023-09-12T14:41:12;6.05;;;5.45;;
57643;SDS011;43474;46.510;6.686;2023-09-12T14:43:38;7.50;;;5.38;;
57643;SDS011;43474;46.510;6.686;2023-09-12T14:46:03;7.97;;;5.18;;
57643;SDS011;43474;46.510;6.686;2023-09-12T14:48:31;6.68;;;5.45;;
57643;SDS011;43474;46.510;6.686;2023-09-12T14:50:59;6.20;;;4.95;;
57643;SDS011;43474;46.510;6.686;2023-09-12T14:53:26;6.35;;;5.30;;
57643;SDS011;43474;46.510;6.686;2023-09-12T14:55:52;5.80;;;5.05;;
57643;SDS011;43474;46.510;6.686;2023-09-12T14:58:18;5.68;;;5.10;;
57643;SDS011;43474;46.510;6.686;2023-09-12T15:00:44;5.50;;;5.00;;
57643;SDS011;43474;46.510;6.686;2023-09-12T15:03:09;6.47;;;5.28;;
57643;SDS011;43474;46.510;6.686;2023-09-12T15:05:35;5.65;;;5.07;;